Time;durP1;ratioP1;P1;durP2;ratioP2;P2;SDS_P1;SDS_P2;PMS_P1;PMS_P2;Temp;Humidity;BMP_temperature;BMP_pressure;BME280_temperature;BME280_humidity;BME280_pressure;Samples;Min_cycle;Max_cycle;Signal;HPM_P1;HPM_P2
2022/01/29 00:00:04;;;;;;;20.15;14.25;;;;;;;;;;5078634;28;20201;-75
2022/01/29 00:02:31;;;;;;;22.63;12.30;;;;;;;;;;5071515;28;20220;-75
2022/01/29 00:04:58;;;;;;;15.52;11.55;;;;;;;;;;5086417;28;20727;-76
2022/01/29 00:07:26;;;;;;;20.70;14.18;;;;;;;;;;5079263;28;20202;-76
2022/01/29 00:10:00;;;;;;;15.70;11.50;;;;;;;;;;5075539;28;20209;-77
2022/01/29 00:12:28;;;;;;;16.58;11.38;;;;;;;;;;5086828;28;20224;-77
2022/01/29 00:14:55;;;;;;;21.83;12.15;;;;;;;;;;5080650;28;20198;-77
2022/01/29 00:17:22;;;;;;;17.23;11.57;;;;;;;;;;5086714;28;20229;-77
2022/01/29 00:19:49;;;;;;;14.88;11.77;;;;;;;;;;5080085;28;20197;-77
2022/01/29 00:22:16;;;;;;;17.33;11.43;;;;;;;;;;5087743;28;20207;-77
2022/01/29 00:24:44;;;;;;;15.65;11.32;;;;;;;;;;5092306;28;20656;-75
2022/01/29 00:27:12;;;;;;;15.82;11.45;;;;;;;;;;5075660;28;20194;-75
2022/01/29 00:29:41;;;;;;;16.50;11.27;;;;;;;;;;5069865;28;20331;-76
2022/01/29 00:32:08;;;;;;;16.60;10.30;;;;;;;;;;5082378;28;20260;-75
2022/01/29 00:34:35;;;;;;;15.88;12.10;;;;;;;;;;5081881;28;20220;-75
2022/01/29 00:37:03;;;;;;;15.23;10.10;;;;;;;;;;5070388;28;20561;-74
2022/01/29 00:39:30;;;;;;;18.27;10.43;;;;;;;;;;5070335;28;20285;-74
2022/01/29 00:41:58;;;;;;;13.57;8.18;;;;;;;;;;5074121;28;20185;-74
2022/01/29 00:44:25;;;;;;;16.60;10.85;;;;;;;;;;5092182;28;20217;-74
2022/01/29 00:46:53;;;;;;;15.82;11.68;;;;;;;;;;5080849;28;20680;-74
2022/01/29 00:49:20;;;;;;;13.85;10.52;;;;;;;;;;5076684;28;20657;-75
2022/01/29 00:51:47;;;;;;;13.05;10.32;;;;;;;;;;5075943;28;20214;-75
2022/01/29 00:54:14;;;;;;;15.27;10.52;;;;;;;;;;5078261;28;20205;-75
2022/01/29 00:56:41;;;;;;;15.25;10.90;;;;;;;;;;5079018;28;20199;-74
2022/01/29 00:59:09;;;;;;;18.13;10.65;;;;;;;;;;5081568;28;20202;-76
2022/01/29 01:01:36;;;;;;;16.67;10.60;;;;;;;;;;5070245;28;20194;-75
2022/01/29 01:04:03;;;;;;;18.00;10.43;;;;;;;;;;5083207;28;20209;-75
2022/01/29 01:06:30;;;;;;;17.10;10.57;;;;;;;;;;5076745;28;20554;-75
2022/01/29 01:08:57;;;;;;;20.23;12.15;;;;;;;;;;5081016;28;20565;-76
2022/01/29 01:11:24;;;;;;;13.95;10.70;;;;;;;;;;5077456;28;20681;-75
2022/01/29 01:13:52;;;;;;;16.05;12.15;;;;;;;;;;5074763;28;20737;-75
2022/01/29 01:16:20;;;;;;;15.98;11.55;;;;;;;;;;5076086;28;20216;-75
2022/01/29 01:18:48;;;;;;;15.32;10.32;;;;;;;;;;5086612;28;20201;-75
2022/01/29 01:21:15;;;;;;;14.82;11.13;;;;;;;;;;5080816;28;20216;-74
2022/01/29 01:23:42;;;;;;;17.85;10.90;;;;;;;;;;5072818;28;20194;-75
2022/01/29 01:26:09;;;;;;;18.63;12.43;;;;;;;;;;5075008;28;20201;-75
2022/01/29 01:28:36;;;;;;;18.42;11.18;;;;;;;;;;5081219;28;20224;-75
2022/01/29 01:31:03;;;;;;;14.07;9.98;;;;;;;;;;5078383;28;20222;-75
2022/01/29 01:33:31;;;;;;;21.42;11.88;;;;;;;;;;5081186;28;20198;-74
2022/01/29 01:36:02;;;;;;;21.70;11.75;;;;;;;;;;5070625;28;20198;-74
2022/01/29 01:38:36;;;;;;;21.40;13.52;;;;;;;;;;5077832;28;20266;-76
2022/01/29 01:41:07;;;;;;;18.10;11.77;;;;;;;;;;5075660;28;20190;-75
2022/01/29 01:43:34;;;;;;;16.38;11.30;;;;;;;;;;5082573;28;20653;-75
2022/01/29 01:46:01;;;;;;;15.95;11.65;;;;;;;;;;5077077;28;20296;-75
2022/01/29 01:48:29;;;;;;;18.23;13.10;;;;;;;;;;5085052;28;20197;-75
2022/01/29 01:50:57;;;;;;;15.38;11.55;;;;;;;;;;5081857;28;20584;-75
2022/01/29 01:53:24;;;;;;;19.17;12.65;;;;;;;;;;5085573;28;20201;-75
2022/01/29 01:55:51;;;;;;;17.75;14.32;;;;;;;;;;5083205;28;20194;-75
2022/01/29 01:58:19;;;;;;;17.02;11.20;;;;;;;;;;5080686;28;20682;-75
2022/01/29 02:00:46;;;;;;;17.55;12.45;;;;;;;;;;5076430;28;20190;-75
2022/01/29 02:03:13;;;;;;;21.88;14.18;;;;;;;;;;5078277;28;20195;-75
2022/01/29 02:05:40;;;;;;;14.85;11.60;;;;;;;;;;5077581;28;20209;-75
2022/01/29 02:08:10;;;;;;;14.93;11.40;;;;;;;;;;5078109;28;20661;-75
2022/01/29 02:10:37;;;;;;;16.00;12.88;;;;;;;;;;5087728;28;20213;-75
2022/01/29 02:13:05;;;;;;;20.70;13.48;;;;;;;;;;5071797;28;20209;-75
2022/01/29 02:15:32;;;;;;;24.50;13.52;;;;;;;;;;5075360;28;20193;-76
2022/01/29 02:18:00;;;;;;;18.25;12.68;;;;;;;;;;5086516;28;20209;-76
2022/01/29 02:20:28;;;;;;;23.25;12.25;;;;;;;;;;5090972;28;20219;-76
2022/01/29 02:22:57;;;;;;;24.63;14.90;;;;;;;;;;5077432;28;20197;-76
2022/01/29 02:25:31;;;;;;;18.60;11.85;;;;;;;;;;5085301;28;20288;-75
2022/01/29 02:27:59;;;;;;;21.75;13.55;;;;;;;;;;5079370;28;20194;-76
2022/01/29 02:30:28;;;;;;;18.13;12.85;;;;;;;;;;5083637;28;20194;-76
2022/01/29 02:32:56;;;;;;;23.10;14.60;;;;;;;;;;5078567;28;20285;-75
2022/01/29 02:35:23;;;;;;;22.63;13.43;;;;;;;;;;5086814;28;20198;-75
2022/01/29 02:37:51;;;;;;;16.13;12.48;;;;;;;;;;5081292;28;20198;-74
2022/01/29 02:40:21;;;;;;;21.45;14.40;;;;;;;;;;5079518;28;20281;-74
2022/01/29 02:42:49;;;;;;;22.67;13.38;;;;;;;;;;5078448;28;20552;-74
2022/01/29 02:45:16;;;;;;;18.52;13.50;;;;;;;;;;5083702;28;20209;-75
2022/01/29 02:47:43;;;;;;;19.50;14.50;;;;;;;;;;5073020;28;20205;-75
2022/01/29 02:50:10;;;;;;;19.85;14.25;;;;;;;;;;5088072;28;20212;-75
2022/01/29 02:52:37;;;;;;;17.52;12.55;;;;;;;;;;5081296;28;20254;-75
2022/01/29 02:55:05;;;;;;;18.63;11.85;;;;;;;;;;5081692;28;20668;-75
2022/01/29 02:57:33;;;;;;;15.40;11.55;;;;;;;;;;5078748;28;20294;-76
2022/01/29 03:00:01;;;;;;;19.95;14.52;;;;;;;;;;5075479;28;20198;-75
2022/01/29 03:02:28;;;;;;;22.70;13.05;;;;;;;;;;5081067;28;20239;-75
2022/01/29 03:04:56;;;;;;;18.95;11.70;;;;;;;;;;5085065;28;20201;-75
2022/01/29 03:07:23;;;;;;;15.23;11.93;;;;;;;;;;5073318;28;20201;-75
2022/01/29 03:09:50;;;;;;;21.63;12.85;;;;;;;;;;5082594;28;20201;-75
2022/01/29 03:12:17;;;;;;;18.63;13.38;;;;;;;;;;5075840;28;20304;-73
2022/01/29 03:14:46;;;;;;;18.92;12.25;;;;;;;;;;5081533;28;20203;-76
2022/01/29 03:17:13;;;;;;;20.25;13.50;;;;;;;;;;5081909;28;20197;-76
2022/01/29 03:19:40;;;;;;;18.42;12.65;;;;;;;;;;5092498;28;20201;-76
2022/01/29 03:22:07;;;;;;;20.67;11.93;;;;;;;;;;5077899;28;20185;-76
2022/01/29 03:24:34;;;;;;;18.67;12.50;;;;;;;;;;5089993;28;20598;-75
2022/01/29 03:27:02;;;;;;;17.17;13.00;;;;;;;;;;5089135;28;20205;-75
2022/01/29 03:29:30;;;;;;;22.23;14.02;;;;;;;;;;5080940;28;20572;-75
2022/01/29 03:31:58;;;;;;;19.35;14.18;;;;;;;;;;5085207;28;20245;-76
2022/01/29 03:34:25;;;;;;;19.00;12.77;;;;;;;;;;5088683;28;20197;-76
2022/01/29 03:36:55;;;;;;;18.58;13.65;;;;;;;;;;5086935;28;20244;-76
2022/01/29 03:39:23;;;;;;;22.50;11.70;;;;;;;;;;5085247;28;20221;-76
2022/01/29 03:41:50;;;;;;;17.38;12.55;;;;;;;;;;5086431;28;20696;-76
2022/01/29 03:44:17;;;;;;;21.42;14.07;;;;;;;;;;5079936;28;20221;-76
2022/01/29 03:46:45;;;;;;;16.40;13.70;;;;;;;;;;5078828;28;20308;-76
2022/01/29 03:49:13;;;;;;;19.40;13.27;;;;;;;;;;5080360;28;20197;-75
2022/01/29 03:51:40;;;;;;;19.85;11.75;;;;;;;;;;5088718;28;20240;-78
2022/01/29 03:54:07;;;;;;;19.20;13.07;;;;;;;;;;5088763;28;20198;-78
2022/01/29 03:56:34;;;;;;;16.80;12.95;;;;;;;;;;5072152;28;20662;-76
2022/01/29 03:59:01;;;;;;;15.95;11.93;;;;;;;;;;5074217;28;20663;-77
2022/01/29 04:01:28;;;;;;;20.10;12.73;;;;;;;;;;5083846;28;20580;-76
2022/01/29 04:03:55;;;;;;;16.17;11.95;;;;;;;;;;5083583;28;20649;-75
2022/01/29 04:06:24;;;;;;;16.63;12.65;;;;;;;;;;5084283;28;20664;-76
2022/01/29 04:08:51;;;;;;;19.15;14.38;;;;;;;;;;5078197;28;20200;-76
2022/01/29 04:11:18;;;;;;;21.10;13.30;;;;;;;;;;5091633;28;20669;-75
2022/01/29 04:13:48;;;;;;;22.02;13.63;;;;;;;;;;5079859;28;20281;-75
2022/01/29 04:16:15;;;;;;;24.35;13.38;;;;;;;;;;5082956;28;20197;-76
2022/01/29 04:18:43;;;;;;;16.52;12.85;;;;;;;;;;5087702;28;20645;-76
2022/01/29 04:21:10;;;;;;;18.85;12.30;;;;;;;;;;5075342;28;20665;-76
2022/01/29 04:23:38;;;;;;;13.93;11.50;;;;;;;;;;5072552;28;20285;-76
2022/01/29 04:26:06;;;;;;;19.23;16.27;;;;;;;;;;5085303;28;20194;-76
2022/01/29 04:28:38;;;;;;;16.98;12.05;;;;;;;;;;5076259;28;20197;-76
2022/01/29 04:31:10;;;;;;;20.75;13.00;;;;;;;;;;5074030;28;20296;-76
2022/01/29 04:33:37;;;;;;;19.77;13.35;;;;;;;;;;5082137;28;20554;-76
2022/01/29 04:36:05;;;;;;;16.92;12.10;;;;;;;;;;5086306;28;20272;-77
2022/01/29 04:38:32;;;;;;;23.85;13.45;;;;;;;;;;5077884;28;20653;-77
2022/01/29 04:41:03;;;;;;;18.20;11.98;;;;;;;;;;5071108;28;20209;-75
2022/01/29 04:43:31;;;;;;;17.58;12.27;;;;;;;;;;5074994;28;20193;-74
2022/01/29 04:45:58;;;;;;;22.17;12.68;;;;;;;;;;5081323;28;20504;-75
2022/01/29 04:48:25;;;;;;;15.45;12.68;;;;;;;;;;5073790;28;20589;-76
2022/01/29 04:50:52;;;;;;;16.13;12.10;;;;;;;;;;5075379;28;20550;-76
2022/01/29 04:53:19;;;;;;;15.32;11.70;;;;;;;;;;5082837;28;20707;-76
2022/01/29 04:55:47;;;;;;;18.05;12.77;;;;;;;;;;5076451;28;20205;-76
2022/01/29 04:58:15;;;;;;;19.60;12.90;;;;;;;;;;5084115;28;20193;-76
2022/01/29 05:00:42;;;;;;;17.30;12.70;;;;;;;;;;5075122;28;20201;-76
2022/01/29 05:03:10;;;;;;;19.38;11.93;;;;;;;;;;5086582;28;20194;-76
2022/01/29 05:05:37;;;;;;;18.00;11.90;;;;;;;;;;5080353;28;20198;-76
2022/01/29 05:08:05;;;;;;;14.50;11.07;;;;;;;;;;5085214;28;20668;-76
2022/01/29 05:10:32;;;;;;;16.13;10.90;;;;;;;;;;5073945;28;20202;-75
2022/01/29 05:13:03;;;;;;;14.80;11.68;;;;;;;;;;5084906;28;20221;-76
2022/01/29 05:15:38;;;;;;;11.50;9.40;;;;;;;;;;5079785;28;20194;-76
2022/01/29 05:29:05;;;;;;;15.82;12.98;;;;;;;;;;5081746;28;20189;-75
2022/01/29 05:31:33;;;;;;;15.68;11.57;;;;;;;;;;5080121;28;20496;-75
2022/01/29 05:34:01;;;;;;;16.35;10.88;;;;;;;;;;5078709;28;20554;-76
2022/01/29 05:36:28;;;;;;;15.65;10.93;;;;;;;;;;5072089;28;20202;-75
2022/01/29 05:38:55;;;;;;;17.77;10.85;;;;;;;;;;5078899;28;20584;-75
2022/01/29 05:41:22;;;;;;;15.75;11.48;;;;;;;;;;5082296;28;20225;-75
2022/01/29 05:43:49;;;;;;;14.32;10.77;;;;;;;;;;5083046;28;20197;-76
2022/01/29 05:46:17;;;;;;;17.70;10.80;;;;;;;;;;5085099;28;20222;-76
2022/01/29 05:48:45;;;;;;;15.95;11.25;;;;;;;;;;5090948;28;20205;-75
2022/01/29 05:51:13;;;;;;;11.43;9.68;;;;;;;;;;5086519;28;20213;-77
2022/01/29 05:53:40;;;;;;;17.25;11.18;;;;;;;;;;5079237;28;20228;-76
2022/01/29 05:56:08;;;;;;;14.73;11.10;;;;;;;;;;5086728;28;20200;-75
2022/01/29 05:58:36;;;;;;;14.15;10.00;;;;;;;;;;5086042;28;20279;-75
2022/01/29 06:01:03;;;;;;;11.98;9.40;;;;;;;;;;5084264;28;20205;-75
2022/01/29 06:03:30;;;;;;;12.90;9.93;;;;;;;;;;5084415;28;20187;-75
2022/01/29 06:05:59;;;;;;;17.23;11.18;;;;;;;;;;5092119;28;20201;-76
2022/01/29 06:08:26;;;;;;;12.73;10.40;;;;;;;;;;5084900;28;20197;-76
2022/01/29 06:10:53;;;;;;;11.52;10.00;;;;;;;;;;5084896;28;20194;-76
2022/01/29 06:13:20;;;;;;;12.00;9.65;;;;;;;;;;5075946;28;20217;-76
2022/01/29 06:15:48;;;;;;;13.90;10.50;;;;;;;;;;5081253;28;20250;-76
2022/01/29 06:18:18;;;;;;;13.00;8.43;;;;;;;;;;5082836;28;20189;-76
2022/01/29 06:20:45;;;;;;;15.98;10.55;;;;;;;;;;5085615;28;20694;-74
2022/01/29 06:23:15;;;;;;;11.60;9.48;;;;;;;;;;5078488;28;20198;-75
2022/01/29 06:25:43;;;;;;;11.18;10.00;;;;;;;;;;5085483;28;20198;-75
2022/01/29 06:28:10;;;;;;;15.07;10.15;;;;;;;;;;5084510;28;20194;-75
2022/01/29 06:30:37;;;;;;;13.00;10.68;;;;;;;;;;5084692;28;20205;-76
2022/01/29 06:33:09;;;;;;;14.60;10.48;;;;;;;;;;5087370;28;20228;-76
2022/01/29 06:35:36;;;;;;;17.02;13.35;;;;;;;;;;5078086;28;20637;-76
2022/01/29 06:38:04;;;;;;;15.20;11.57;;;;;;;;;;5079971;28;20202;-75
2022/01/29 06:40:32;;;;;;;16.42;13.07;;;;;;;;;;5075337;28;20208;-75
2022/01/29 06:43:01;;;;;;;13.35;10.00;;;;;;;;;;5078413;28;20344;-75
2022/01/29 06:45:28;;;;;;;12.43;10.80;;;;;;;;;;5078918;28;20723;-75
2022/01/29 06:47:55;;;;;;;15.07;12.05;;;;;;;;;;5083258;28;20225;-75
2022/01/29 06:50:23;;;;;;;13.15;11.02;;;;;;;;;;5082731;28;20213;-75
2022/01/29 06:52:50;;;;;;;15.13;11.73;;;;;;;;;;5073623;28;20596;-75
2022/01/29 06:55:17;;;;;;;14.57;10.90;;;;;;;;;;5072965;28;20672;-75
2022/01/29 06:57:45;;;;;;;17.00;11.20;;;;;;;;;;5086472;28;20194;-76
2022/01/29 07:00:13;;;;;;;12.43;10.18;;;;;;;;;;5088610;28;20638;-74
2022/01/29 07:02:40;;;;;;;13.07;11.15;;;;;;;;;;5082337;28;20189;-75
2022/01/29 07:05:08;;;;;;;15.15;11.95;;;;;;;;;;5089750;28;20333;-74
2022/01/29 07:07:35;;;;;;;18.20;13.00;;;;;;;;;;5080410;28;20209;-75
2022/01/29 07:10:03;;;;;;;12.75;10.20;;;;;;;;;;5088205;28;20200;-74
2022/01/29 07:12:30;;;;;;;14.68;12.20;;;;;;;;;;5087327;28;20647;-74
2022/01/29 07:14:58;;;;;;;16.98;11.93;;;;;;;;;;5076998;28;20205;-74
2022/01/29 07:17:25;;;;;;;13.20;10.77;;;;;;;;;;5080011;28;20649;-74
2022/01/29 07:19:53;;;;;;;12.80;10.23;;;;;;;;;;5080315;28;20647;-74
2022/01/29 07:22:21;;;;;;;16.70;11.63;;;;;;;;;;5075699;28;20194;-73
2022/01/29 07:24:48;;;;;;;15.95;12.23;;;;;;;;;;5089077;28;20205;-74
2022/01/29 07:27:15;;;;;;;13.95;10.68;;;;;;;;;;5087620;28;20197;-73
2022/01/29 07:29:43;;;;;;;15.95;11.50;;;;;;;;;;5081966;28;20581;-74
2022/01/29 07:32:11;;;;;;;14.32;10.75;;;;;;;;;;5086440;28;20205;-75
2022/01/29 07:34:38;;;;;;;13.43;10.90;;;;;;;;;;5081561;28;20201;-73
2022/01/29 07:37:05;;;;;;;15.93;12.85;;;;;;;;;;5082272;28;20201;-74
2022/01/29 07:39:32;;;;;;;17.02;12.38;;;;;;;;;;5084741;28;20202;-74
2022/01/29 07:42:00;;;;;;;16.10;12.75;;;;;;;;;;5080256;28;20201;-75
2022/01/29 07:44:27;;;;;;;20.15;12.27;;;;;;;;;;5074039;28;20642;-73
2022/01/29 07:46:54;;;;;;;16.88;11.80;;;;;;;;;;5080626;28;20197;-75
2022/01/29 07:49:22;;;;;;;17.10;12.65;;;;;;;;;;5088104;28;20193;-75
2022/01/29 07:51:49;;;;;;;16.50;12.30;;;;;;;;;;5072940;28;20205;-75
2022/01/29 07:54:16;;;;;;;15.52;12.05;;;;;;;;;;5082888;28;20232;-75
2022/01/29 07:56:44;;;;;;;16.77;12.80;;;;;;;;;;5079418;28;20209;-75
2022/01/29 07:59:11;;;;;;;21.80;13.80;;;;;;;;;;5085929;28;20202;-74
2022/01/29 08:01:38;;;;;;;16.30;13.90;;;;;;;;;;5077198;28;20201;-75
2022/01/29 08:04:05;;;;;;;15.98;13.32;;;;;;;;;;5081528;28;20194;-74
2022/01/29 08:06:34;;;;;;;17.52;13.77;;;;;;;;;;5082166;28;20649;-74
2022/01/29 08:09:01;;;;;;;15.95;12.35;;;;;;;;;;5081038;28;20554;-74
2022/01/29 08:11:28;;;;;;;15.40;13.18;;;;;;;;;;5085008;28;20194;-74
2022/01/29 08:13:55;;;;;;;15.15;12.98;;;;;;;;;;5082940;28;20680;-74
2022/01/29 08:16:22;;;;;;;19.85;15.13;;;;;;;;;;5083576;28;20653;-74
2022/01/29 08:18:50;;;;;;;18.83;13.00;;;;;;;;;;5088416;28;20661;-75
2022/01/29 08:21:18;;;;;;;19.60;15.30;;;;;;;;;;5080109;28;20255;-73
2022/01/29 08:23:47;;;;;;;21.13;13.60;;;;;;;;;;5081437;28;20193;-75
2022/01/29 08:26:14;;;;;;;21.83;14.35;;;;;;;;;;5081115;28;20298;-74
2022/01/29 08:28:41;;;;;;;20.15;14.40;;;;;;;;;;5082203;28;20204;-75
2022/01/29 08:31:08;;;;;;;17.10;12.55;;;;;;;;;;5085260;28;20668;-75
2022/01/29 08:33:35;;;;;;;18.23;13.88;;;;;;;;;;5084131;28;20280;-75
2022/01/29 08:36:03;;;;;;;21.35;14.10;;;;;;;;;;5079509;28;20203;-75
2022/01/29 08:38:30;;;;;;;22.48;15.63;;;;;;;;;;5080155;28;20548;-75
2022/01/29 08:40:59;;;;;;;18.38;15.10;;;;;;;;;;5070541;28;20194;-75
2022/01/29 08:43:26;;;;;;;18.80;13.57;;;;;;;;;;5069966;28;20194;-75
2022/01/29 08:45:53;;;;;;;18.35;13.90;;;;;;;;;;5070224;28;20581;-75
2022/01/29 08:48:20;;;;;;;23.42;14.10;;;;;;;;;;5077235;28;20197;-75
2022/01/29 08:50:48;;;;;;;19.67;14.38;;;;;;;;;;5086642;28;20197;-75
2022/01/29 08:53:15;;;;;;;23.23;15.80;;;;;;;;;;5071126;28;20206;-75
2022/01/29 08:55:42;;;;;;;17.90;13.20;;;;;;;;;;5072542;28;20197;-75
2022/01/29 08:58:11;;;;;;;17.23;13.50;;;;;;;;;;5078336;28;20194;-75
2022/01/29 09:00:38;;;;;;;20.88;14.30;;;;;;;;;;5085486;28;20197;-75
2022/01/29 09:03:06;;;;;;;20.67;15.32;;;;;;;;;;5070918;28;20198;-75
2022/01/29 09:05:34;;;;;;;18.67;13.88;;;;;;;;;;5071048;28;20580;-76
2022/01/29 09:08:01;;;;;;;20.30;14.13;;;;;;;;;;5085208;28;20214;-75
2022/01/29 09:10:30;;;;;;;15.40;13.77;;;;;;;;;;5072846;28;20198;-75
2022/01/29 09:12:57;;;;;;;16.33;12.77;;;;;;;;;;5083117;28;20214;-75
2022/01/29 09:15:26;;;;;;;18.55;12.95;;;;;;;;;;5076965;28;20194;-75
2022/01/29 09:17:53;;;;;;;18.70;13.75;;;;;;;;;;5082576;28;20197;-74
2022/01/29 09:20:20;;;;;;;15.32;11.93;;;;;;;;;;5081636;28;20206;-74
2022/01/29 09:22:47;;;;;;;21.40;13.93;;;;;;;;;;5081935;28;20560;-75
2022/01/29 09:25:14;;;;;;;15.60;11.43;;;;;;;;;;5077875;28;20653;-75
2022/01/29 09:27:41;;;;;;;18.00;13.15;;;;;;;;;;5082179;28;20201;-75
2022/01/29 09:30:08;;;;;;;15.07;12.13;;;;;;;;;;5071764;28;20193;-76
2022/01/29 09:32:37;;;;;;;18.63;13.82;;;;;;;;;;5086420;28;20223;-75
2022/01/29 09:35:04;;;;;;;14.98;11.52;;;;;;;;;;5086070;28;20633;-75
2022/01/29 09:37:31;;;;;;;18.23;13.90;;;;;;;;;;5071051;28;20213;-75
2022/01/29 09:39:59;;;;;;;14.43;12.93;;;;;;;;;;5089845;28;20197;-75
2022/01/29 09:42:26;;;;;;;14.45;11.52;;;;;;;;;;5088668;28;20197;-75
2022/01/29 09:44:53;;;;;;;15.30;11.82;;;;;;;;;;5079353;28;20253;-75
2022/01/29 09:47:22;;;;;;;15.35;11.38;;;;;;;;;;5081307;28;20421;-75
2022/01/29 09:49:52;;;;;;;16.60;12.20;;;;;;;;;;5086514;28;20193;-75
2022/01/29 09:52:19;;;;;;;15.70;12.10;;;;;;;;;;5082759;28;20198;-75
2022/01/29 09:54:48;;;;;;;12.80;9.75;;;;;;;;;;5070053;28;20220;-75
2022/01/29 09:57:15;;;;;;;13.80;10.68;;;;;;;;;;5078514;28;20209;-75
2022/01/29 09:59:42;;;;;;;11.88;9.25;;;;;;;;;;5079470;28;20209;-75
2022/01/29 10:02:15;;;;;;;12.95;10.15;;;;;;;;;;5071677;28;20195;-75
2022/01/29 10:04:49;;;;;;;12.73;10.88;;;;;;;;;;5081797;28;20248;-75
2022/01/29 10:07:18;;;;;;;12.77;10.60;;;;;;;;;;5070550;28;20194;-75
2022/01/29 10:09:45;;;;;;;12.68;10.13;;;;;;;;;;5067568;28;20581;-75
2022/01/29 10:12:27;;;;;;;13.85;10.07;;;;;;;;;;5084969;28;20197;-75
2022/01/29 10:14:55;;;;;;;12.93;10.10;;;;;;;;;;5086782;28;20211;-75
2022/01/29 10:17:49;;;;;;;12.30;9.73;;;;;;;;;;5070862;28;20194;-75
2022/01/29 10:20:17;;;;;;;11.30;10.00;;;;;;;;;;5023266;28;20206;-75
2022/01/29 10:22:47;;;;;;;12.60;9.60;;;;;;;;;;5086844;28;20198;-75
2022/01/29 10:25:16;;;;;;;13.30;10.57;;;;;;;;;;5076990;28;20685;-75
2022/01/29 10:28:06;;;;;;;13.15;9.80;;;;;;;;;;5079003;28;20197;-75
2022/01/29 10:30:33;;;;;;;10.25;9.10;;;;;;;;;;5081979;28;20194;-75
2022/01/29 10:33:15;;;;;;;11.32;10.10;;;;;;;;;;5093703;28;20193;-75
2022/01/29 10:35:43;;;;;;;14.68;10.95;;;;;;;;;;5085689;28;20201;-75
2022/01/29 10:38:11;;;;;;;13.85;11.40;;;;;;;;;;5074151;28;20190;-75
2022/01/29 10:40:39;;;;;;;12.63;10.38;;;;;;;;;;5080241;28;20206;-75
2022/01/29 10:43:06;;;;;;;14.77;10.77;;;;;;;;;;5087235;28;20197;-74
2022/01/29 10:45:34;;;;;;;11.93;9.75;;;;;;;;;;5085105;28;20220;-74
2022/01/29 10:48:03;;;;;;;13.35;10.45;;;;;;;;;;5092525;28;20189;-75
2022/01/29 10:50:30;;;;;;;11.15;10.00;;;;;;;;;;5088367;28;20700;-74
2022/01/29 10:52:57;;;;;;;12.23;10.93;;;;;;;;;;5075112;28;20198;-75
2022/01/29 10:55:26;;;;;;;13.88;11.02;;;;;;;;;;5078185;28;20202;-74
2022/01/29 10:57:53;;;;;;;13.20;11.88;;;;;;;;;;5085691;28;20625;-74
2022/01/29 11:00:21;;;;;;;15.45;13.20;;;;;;;;;;5075568;28;20190;-75
2022/01/29 11:02:49;;;;;;;12.32;11.13;;;;;;;;;;5081051;28;20228;-74
2022/01/29 11:05:17;;;;;;;12.02;10.82;;;;;;;;;;5080261;28;20596;-75
2022/01/29 11:07:50;;;;;;;13.85;11.75;;;;;;;;;;5105107;28;20263;-75
2022/01/29 11:10:17;;;;;;;14.00;11.68;;;;;;;;;;5084549;28;20609;-74
2022/01/29 11:12:46;;;;;;;14.15;12.10;;;;;;;;;;5092763;28;20193;-75
2022/01/29 11:15:13;;;;;;;16.52;11.80;;;;;;;;;;5086781;28;20217;-75
2022/01/29 11:17:41;;;;;;;12.55;11.25;;;;;;;;;;5084804;28;20205;-75
2022/01/29 11:20:08;;;;;;;13.65;10.70;;;;;;;;;;5088391;28;20197;-75
2022/01/29 11:22:38;;;;;;;14.32;11.77;;;;;;;;;;5079485;28;20202;-75
2022/01/29 11:25:07;;;;;;;11.95;9.88;;;;;;;;;;5092092;28;20186;-74
2022/01/29 11:27:37;;;;;;;16.80;12.43;;;;;;;;;;5091178;28;20584;-75
2022/01/29 11:30:12;;;;;;;13.98;11.13;;;;;;;;;;5085386;28;20199;-75
2022/01/29 11:32:41;;;;;;;10.80;9.70;;;;;;;;;;5085596;28;20209;-74
2022/01/29 11:35:28;;;;;;;13.90;12.50;;;;;;;;;;5083926;28;20253;-74
2022/01/29 11:37:57;;;;;;;13.40;11.45;;;;;;;;;;5082694;28;20247;-75
2022/01/29 11:40:31;;;;;;;16.65;13.85;;;;;;;;;;5088683;28;20285;-75
2022/01/29 11:43:04;;;;;;;12.35;10.60;;;;;;;;;;5085198;28;20272;-75
2022/01/29 11:45:44;;;;;;;10.02;8.82;;;;;;;;;;5086530;28;20309;-75
2022/01/29 11:48:26;;;;;;;12.75;11.52;;;;;;;;;;5086319;28;20196;-75
2022/01/29 11:50:53;;;;;;;11.07;10.00;;;;;;;;;;5071061;28;20572;-75
2022/01/29 11:53:21;;;;;;;12.85;10.65;;;;;;;;;;5071731;28;20202;-74
2022/01/29 11:55:49;;;;;;;13.65;12.25;;;;;;;;;;5081875;28;20217;-75
2022/01/29 11:58:16;;;;;;;14.18;12.35;;;;;;;;;;5092145;28;20185;-75
2022/01/29 12:00:46;;;;;;;12.95;11.27;;;;;;;;;;5083715;28;20201;-75
2022/01/29 12:03:28;;;;;;;14.05;12.50;;;;;;;;;;5088594;28;20239;-75
2022/01/29 12:06:13;;;;;;;14.52;12.85;;;;;;;;;;5071990;28;20194;-75
2022/01/29 12:09:05;;;;;;;13.27;11.98;;;;;;;;;;5084662;28;20201;-75
2022/01/29 12:11:33;;;;;;;12.48;11.27;;;;;;;;;;5081515;28;20249;-75
2022/01/29 12:14:19;;;;;;;15.88;12.30;;;;;;;;;;5088986;28;20580;-75
2022/01/29 12:16:48;;;;;;;12.48;11.05;;;;;;;;;;5086198;28;20596;-74
2022/01/29 12:19:30;;;;;;;16.75;13.90;;;;;;;;;;5085218;28;20190;-74
2022/01/29 12:21:57;;;;;;;14.65;13.13;;;;;;;;;;5075363;28;20190;-75
2022/01/29 12:24:24;;;;;;;13.30;11.60;;;;;;;;;;5090750;28;20201;-76
2022/01/29 12:26:55;;;;;;;12.88;11.55;;;;;;;;;;5091379;28;20189;-74
2022/01/29 12:29:23;;;;;;;14.13;12.18;;;;;;;;;;5084416;28;20206;-74
2022/01/29 12:31:52;;;;;;;13.40;12.02;;;;;;;;;;5087265;28;20201;-74
2022/01/29 12:34:20;;;;;;;13.40;11.85;;;;;;;;;;5088541;28;20224;-75
2022/01/29 12:36:48;;;;;;;12.50;11.20;;;;;;;;;;5076493;28;20205;-74
2022/01/29 12:39:21;;;;;;;12.68;11.32;;;;;;;;;;5077182;28;20190;-75
2022/01/29 12:42:01;;;;;;;13.85;12.45;;;;;;;;;;5089618;28;20280;-75
2022/01/29 12:44:28;;;;;;;12.15;10.95;;;;;;;;;;5084443;28;20197;-75
2022/01/29 12:46:57;;;;;;;13.30;12.00;;;;;;;;;;5073077;28;20198;-75
2022/01/29 12:49:24;;;;;;;11.65;10.55;;;;;;;;;;5077782;28;20196;-75
2022/01/29 12:51:52;;;;;;;11.73;10.52;;;;;;;;;;5074510;28;20688;-74
2022/01/29 12:54:20;;;;;;;12.32;11.05;;;;;;;;;;5086816;28;20307;-75
2022/01/29 12:56:47;;;;;;;11.90;10.80;;;;;;;;;;5088754;28;20197;-75
2022/01/29 12:59:15;;;;;;;11.73;10.55;;;;;;;;;;5087675;28;20213;-75
2022/01/29 13:01:43;;;;;;;14.48;11.50;;;;;;;;;;5087222;28;20570;-75
2022/01/29 13:04:13;;;;;;;13.10;11.80;;;;;;;;;;5085385;28;20620;-74
2022/01/29 13:06:40;;;;;;;14.45;12.95;;;;;;;;;;5081442;28;20208;-75
2022/01/29 13:09:14;;;;;;;12.73;11.27;;;;;;;;;;5087018;28;20665;-74
2022/01/29 13:11:42;;;;;;;12.07;10.88;;;;;;;;;;5090404;28;20197;-74
2022/01/29 13:14:12;;;;;;;12.93;11.63;;;;;;;;;;5088343;28;20703;-74
2022/01/29 13:16:39;;;;;;;11.00;9.90;;;;;;;;;;5080479;28;20190;-74
2022/01/29 13:19:07;;;;;;;12.60;11.40;;;;;;;;;;5082050;28;20197;-74
2022/01/29 13:21:35;;;;;;;12.40;10.98;;;;;;;;;;5081166;28;20197;-74
2022/01/29 13:24:23;;;;;;;13.52;12.13;;;;;;;;;;5091161;28;20193;-74
2022/01/29 13:26:58;;;;;;;13.55;11.32;;;;;;;;;;5087645;28;20193;-74
2022/01/29 13:29:32;;;;;;;12.40;10.88;;;;;;;;;;5086549;28;20211;-75
2022/01/29 13:31:59;;;;;;;12.35;11.15;;;;;;;;;;5084188;28;20603;-75
2022/01/29 13:34:27;;;;;;;12.90;11.18;;;;;;;;;;5081960;28;20221;-74
2022/01/29 13:36:55;;;;;;;12.40;11.20;;;;;;;;;;5080357;28;20201;-75
2022/01/29 13:39:25;;;;;;;11.75;10.65;;;;;;;;;;5073299;28;20209;-76
2022/01/29 13:42:06;;;;;;;12.80;11.48;;;;;;;;;;5091117;28;20568;-75
2022/01/29 13:44:33;;;;;;;11.45;10.45;;;;;;;;;;5075722;28;20701;-76
2022/01/29 13:47:07;;;;;;;12.00;10.80;;;;;;;;;;5076139;28;20200;-75
2022/01/29 13:49:35;;;;;;;13.13;12.00;;;;;;;;;;5086408;28;20208;-75
2022/01/29 13:52:14;;;;;;;15.38;11.20;;;;;;;;;;5081656;28;20204;-75
2022/01/29 13:54:41;;;;;;;13.95;12.25;;;;;;;;;;5087665;28;20209;-75
2022/01/29 13:57:09;;;;;;;12.98;11.35;;;;;;;;;;5081018;28;20641;-76
2022/01/29 13:59:37;;;;;;;10.65;9.65;;;;;;;;;;5082597;28;20208;-75
2022/01/29 14:02:07;;;;;;;10.93;9.93;;;;;;;;;;5070498;28;20193;-75
2022/01/29 14:04:37;;;;;;;11.70;10.63;;;;;;;;;;5080522;28;20297;-75
2022/01/29 14:07:06;;;;;;;12.55;11.25;;;;;;;;;;5087400;28;20197;-76
2022/01/29 14:09:36;;;;;;;10.25;9.38;;;;;;;;;;5088699;28;20206;-75
2022/01/29 14:12:11;;;;;;;12.45;11.15;;;;;;;;;;5087943;28;20199;-76
2022/01/29 14:14:43;;;;;;;10.35;9.35;;;;;;;;;;5090888;28;20213;-76
2022/01/29 14:17:11;;;;;;;11.38;10.27;;;;;;;;;;5088318;28;21292;-75
2022/01/29 14:19:39;;;;;;;12.00;10.80;;;;;;;;;;5082736;28;20681;-75
2022/01/29 14:22:07;;;;;;;10.93;9.82;;;;;;;;;;5089738;28;20193;-75
2022/01/29 14:24:36;;;;;;;10.57;9.48;;;;;;;;;;5088441;28;20255;-76
2022/01/29 14:27:04;;;;;;;11.55;10.45;;;;;;;;;;5093989;28;20190;-75
2022/01/29 14:29:31;;;;;;;9.93;8.98;;;;;;;;;;5079574;28;20199;-76
2022/01/29 14:31:58;;;;;;;17.33;13.80;;;;;;;;;;5091212;28;20660;-76
2022/01/29 14:34:25;;;;;;;23.92;16.35;;;;;;;;;;5085024;28;20465;-73
2022/01/29 14:36:55;;;;;;;17.08;15.30;;;;;;;;;;5081673;28;20330;-74